Terminal Aerodrome Forecast
Issued by NWS Wilmington, OH

Current Version | Previous Version | Graphics & Text | Print | Product List | Glossary On
Versions: 1 2 3 4 5 6 7 8 9 10 11 12 13 14 15 16
000
FTUS41 KILN 040500
TAFDAY
TAF
KDAY 040528Z 0406/0506 34005KT 3SM BR VCSH FEW030 SCT090
     FM041300 35005KT P6SM FEW040 SCT120
     FM041800 32006KT P6SM SCT050
     FM050000 VRB03KT P6SM FEW040=

USA.gov is the U.S. government's official web portal to all federal, state and local government web resources and services.